Time;durP1;ratioP1;P1;durP2;ratioP2;P2;SDS_P1;SDS_P2;PMS_P1;PMS_P2;Temp;Humidity;BMP_temperature;BMP_pressure;BME280_temperature;BME280_humidity;BME280_pressure;Samples;Min_cycle;Max_cycle;Signal;HPM_P1;HPM_P2
2023/09/18 00:01:47;;;;;;;4.18;2.53;;;23.10;99.90;;;;;;5080664;28;46247;-51
2023/09/18 00:04:14;;;;;;;4.07;2.65;;;23.10;99.90;;;;;;5081067;28;45543;-51
2023/09/18 00:06:41;;;;;;;4.10;2.78;;;23.10;99.90;;;;;;5083180;27;45092;-51
2023/09/18 00:09:11;;;;;;;3.60;2.88;;;23.10;99.90;;;;;;5086312;27;45095;-51
2023/09/18 00:11:38;;;;;;;3.92;2.78;;;23.10;99.90;;;;;;5084242;28;46087;-51
2023/09/18 00:14:05;;;;;;;5.65;2.72;;;23.10;99.90;;;;;;5085461;28;45107;-51
2023/09/18 00:16:33;;;;;;;6.70;2.88;;;23.00;99.90;;;;;;5086420;28;45202;-51
2023/09/18 00:19:00;;;;;;;3.33;2.60;;;23.10;99.90;;;;;;5081350;28;45146;-51
2023/09/18 00:21:30;;;;;;;5.03;2.63;;;23.10;99.90;;;;;;5081892;28;45435;-51
2023/09/18 00:23:57;;;;;;;4.50;2.60;;;23.10;99.90;;;;;;5084504;28;46287;-51
2023/09/18 00:26:25;;;;;;;4.47;2.72;;;23.00;99.90;;;;;;5085575;28;45212;-51
2023/09/18 00:28:52;;;;;;;3.35;2.65;;;23.00;99.90;;;;;;5080838;28;45280;-50
2023/09/18 00:31:20;;;;;;;3.50;2.80;;;23.10;99.90;;;;;;5084440;28;47259;-51
2023/09/18 00:33:48;;;;;;;5.13;2.65;;;23.10;99.90;;;;;;5084642;28;45121;-51
2023/09/18 00:36:14;;;;;;;4.32;2.67;;;23.10;99.90;;;;;;5084037;28;45209;-51
2023/09/18 00:38:41;;;;;;;4.03;2.70;;;23.10;99.90;;;;;;5085967;28;45544;-51
2023/09/18 00:41:08;;;;;;;4.07;2.70;;;23.10;99.90;;;;;;5087099;28;45165;-51
2023/09/18 00:43:35;;;;;;;4.35;2.75;;;23.10;99.90;;;;;;5084038;28;45158;-51
2023/09/18 00:46:02;;;;;;;3.50;2.58;;;23.10;99.90;;;;;;5076343;28;45204;-51
2023/09/18 00:48:29;;;;;;;3.38;2.47;;;23.10;99.90;;;;;;5079477;28;45329;-51
2023/09/18 00:50:58;;;;;;;3.25;2.50;;;23.10;99.90;;;;;;5084953;27;47120;-51
2023/09/18 00:53:26;;;;;;;5.82;2.40;;;23.10;99.90;;;;;;5085374;28;45166;-51
2023/09/18 00:55:56;;;;;;;3.65;3.05;;;23.10;99.90;;;;;;5077044;28;44598;-51
2023/09/18 00:58:23;;;;;;;4.20;2.65;;;23.10;99.90;;;;;;5080243;28;44667;-51
2023/09/18 01:00:51;;;;;;;3.45;2.60;;;23.00;99.90;;;;;;5086637;28;46100;-51
2023/09/18 01:03:18;;;;;;;4.72;2.78;;;23.10;99.90;;;;;;5084264;28;45152;-51
2023/09/18 01:05:45;;;;;;;5.25;2.67;;;23.10;99.90;;;;;;5069729;28;45119;-51
2023/09/18 01:08:13;;;;;;;3.40;2.67;;;23.10;99.90;;;;;;5073275;28;45152;-51
2023/09/18 01:10:49;;;;;;;4.13;2.65;;;23.10;99.90;;;;;;5078035;28;46164;-51
2023/09/18 01:13:22;;;;;;;3.97;2.90;;;23.10;99.90;;;;;;5081006;28;45147;-51
2023/09/18 01:15:55;;;;;;;4.38;2.80;;;23.10;99.90;;;;;;5086046;28;45155;-51
2023/09/18 01:18:21;;;;;;;4.93;2.90;;;23.10;99.90;;;;;;5084390;28;45130;-50
2023/09/18 01:20:48;;;;;;;4.63;2.70;;;23.10;99.90;;;;;;5075510;28;46465;-50
2023/09/18 01:23:16;;;;;;;3.25;2.50;;;23.10;99.90;;;;;;5086350;28;45110;-50
2023/09/18 01:25:43;;;;;;;4.15;2.72;;;23.10;99.90;;;;;;5079740;27;45216;-50
2023/09/18 01:28:10;;;;;;;4.85;2.50;;;23.10;99.90;;;;;;5074385;28;45241;-50
2023/09/18 01:30:38;;;;;;;3.45;2.45;;;23.10;99.90;;;;;;5082489;28;47031;-50
2023/09/18 01:33:05;;;;;;;4.03;2.42;;;23.10;99.90;;;;;;5083233;28;45146;-50
2023/09/18 01:35:34;;;;;;;3.47;2.58;;;23.10;99.90;;;;;;5077128;28;45179;-51
2023/09/18 01:38:03;;;;;;;3.83;2.72;;;23.10;99.90;;;;;;5081669;28;45323;-51
2023/09/18 01:40:32;;;;;;;3.97;2.60;;;23.00;99.90;;;;;;5085437;28;46056;-50
2023/09/18 01:42:59;;;;;;;3.35;2.65;;;23.10;99.90;;;;;;5080029;28;45056;-51
2023/09/18 01:45:26;;;;;;;3.97;3.00;;;23.00;99.90;;;;;;5080757;28;45249;-50
2023/09/18 01:47:53;;;;;;;5.38;2.97;;;23.00;99.90;;;;;;5081336;28;44771;-51
2023/09/18 01:50:19;;;;;;;4.97;3.05;;;23.00;99.90;;;;;;5085325;28;46382;-50
2023/09/18 01:52:46;;;;;;;4.43;2.97;;;23.00;99.90;;;;;;5085767;28;45047;-51
2023/09/18 01:55:13;;;;;;;5.88;3.10;;;23.00;99.90;;;;;;5084171;28;45111;-51
2023/09/18 01:57:42;;;;;;;4.60;2.88;;;23.10;99.90;;;;;;5081715;28;45063;-51
2023/09/18 02:00:11;;;;;;;4.80;3.20;;;23.00;99.90;;;;;;5078232;28;45428;-51
2023/09/18 02:02:38;;;;;;;6.22;2.95;;;23.00;99.90;;;;;;5081364;28;45063;-51
2023/09/18 02:05:05;;;;;;;5.47;2.88;;;23.00;99.90;;;;;;5071862;28;45101;-51
2023/09/18 02:07:32;;;;;;;5.22;3.00;;;23.10;99.90;;;;;;5072261;28;45483;-51
2023/09/18 02:09:59;;;;;;;3.78;2.65;;;23.00;99.90;;;;;;5084567;28;47356;-51
2023/09/18 02:12:26;;;;;;;3.72;2.72;;;23.00;99.90;;;;;;5083600;28;45259;-51
2023/09/18 02:14:57;;;;;;;4.13;2.88;;;23.00;99.90;;;;;;5073602;27;44529;-51
2023/09/18 02:17:24;;;;;;;4.32;3.25;;;23.10;99.90;;;;;;5081055;28;45052;-51
2023/09/18 02:19:51;;;;;;;4.22;3.00;;;23.10;99.90;;;;;;5081554;28;45268;-51
2023/09/18 02:22:18;;;;;;;3.63;2.47;;;23.10;99.90;;;;;;5085285;27;45198;-51
2023/09/18 02:24:44;;;;;;;3.28;2.45;;;23.10;99.90;;;;;;5083559;27;45175;-51
2023/09/18 02:27:12;;;;;;;5.45;2.67;;;23.10;99.90;;;;;;5083287;27;44717;-51
2023/09/18 02:29:38;;;;;;;4.28;2.58;;;23.10;99.90;;;;;;5080179;28;47147;-51
2023/09/18 02:32:07;;;;;;;4.22;2.90;;;23.10;99.90;;;;;;5082105;27;45232;-50
2023/09/18 02:34:34;;;;;;;3.45;2.60;;;23.10;99.90;;;;;;5081967;28;45046;-51
2023/09/18 02:37:00;;;;;;;4.07;2.47;;;23.10;99.90;;;;;;5084584;28;45089;-51
2023/09/18 02:39:27;;;;;;;2.95;2.33;;;23.10;99.90;;;;;;5083860;28;45160;-51
2023/09/18 02:41:54;;;;;;;3.17;2.50;;;23.10;99.90;;;;;;5085071;27;45266;-51
2023/09/18 02:44:21;;;;;;;4.38;2.75;;;23.10;99.90;;;;;;5079183;28;45162;-51
2023/09/18 02:46:48;;;;;;;4.60;2.78;;;23.10;99.90;;;;;;5077644;28;45209;-51
2023/09/18 02:49:16;;;;;;;4.10;2.50;;;23.10;99.90;;;;;;5082595;27;46993;-50
2023/09/18 02:51:42;;;;;;;3.03;2.45;;;23.10;99.90;;;;;;5067945;28;45162;-50
2023/09/18 02:54:09;;;;;;;4.43;2.38;;;23.10;99.90;;;;;;5080372;27;45207;-51
2023/09/18 02:56:36;;;;;;;3.42;2.42;;;23.10;99.90;;;;;;5082374;27;45159;-51
2023/09/18 02:59:03;;;;;;;3.78;2.80;;;23.10;99.90;;;;;;5082615;28;46380;-51
2023/09/18 03:01:30;;;;;;;4.40;2.92;;;23.10;99.90;;;;;;5082575;27;45166;-51
2023/09/18 03:03:57;;;;;;;5.82;3.00;;;23.10;99.90;;;;;;5078744;28;45087;-51
2023/09/18 03:06:25;;;;;;;4.72;2.70;;;23.10;99.90;;;;;;5072840;28;44821;-51
2023/09/18 03:08:52;;;;;;;5.50;3.08;;;23.10;99.90;;;;;;5073194;28;48167;-51
2023/09/18 03:11:19;;;;;;;5.70;2.85;;;23.10;99.90;;;;;;5082379;28;44608;-51
2023/09/18 03:13:47;;;;;;;4.30;2.70;;;23.10;99.90;;;;;;5073127;28;45162;-51
2023/09/18 03:16:14;;;;;;;5.95;2.78;;;23.10;99.90;;;;;;5077961;28;45320;-51
2023/09/18 03:18:41;;;;;;;4.70;3.22;;;23.10;99.90;;;;;;5081911;28;46451;-51
2023/09/18 03:21:08;;;;;;;4.38;2.80;;;23.00;99.90;;;;;;5075759;27;45036;-51
2023/09/18 03:23:36;;;;;;;5.18;2.85;;;23.10;99.90;;;;;;5064259;28;45161;-51
2023/09/18 03:26:03;;;;;;;5.63;3.38;;;23.00;99.90;;;;;;5078544;28;45213;-51
2023/09/18 03:28:30;;;;;;;4.13;2.80;;;23.00;99.90;;;;;;5078906;28;49274;-51
2023/09/18 03:30:58;;;;;;;7.13;2.78;;;23.00;99.90;;;;;;5075877;28;45143;-51
2023/09/18 03:33:25;;;;;;;4.82;3.03;;;23.00;99.90;;;;;;5078241;28;45024;-51
2023/09/18 03:35:54;;;;;;;4.03;2.85;;;23.00;99.90;;;;;;5083301;28;45450;-51
2023/09/18 03:38:21;;;;;;;3.97;2.58;;;23.00;99.90;;;;;;5084403;28;46407;-50
2023/09/18 03:40:49;;;;;;;6.65;3.05;;;23.00;99.90;;;;;;5078142;28;45053;-51
2023/09/18 03:43:17;;;;;;;5.57;3.00;;;23.00;99.90;;;;;;5076608;28;45056;-50
2023/09/18 03:45:43;;;;;;;3.97;2.83;;;23.10;99.90;;;;;;5077888;27;44857;-51
2023/09/18 03:48:10;;;;;;;5.90;3.22;;;23.10;99.90;;;;;;5079000;28;46385;-50
2023/09/18 03:50:38;;;;;;;5.80;3.22;;;23.00;99.90;;;;;;5083288;28;45051;-51
2023/09/18 03:53:05;;;;;;;6.72;2.92;;;23.00;99.90;;;;;;5072499;28;45148;-51
2023/09/18 03:55:32;;;;;;;4.35;2.72;;;23.00;99.90;;;;;;5073986;28;45055;-51
2023/09/18 03:58:00;;;;;;;7.65;3.10;;;23.00;99.90;;;;;;5078459;28;45513;-50
2023/09/18 04:00:27;;;;;;;5.88;3.15;;;23.00;99.90;;;;;;5072523;28;45094;-50
2023/09/18 04:02:53;;;;;;;4.63;3.08;;;23.00;99.90;;;;;;5072308;28;45360;-50
2023/09/18 04:05:20;;;;;;;5.82;2.70;;;23.00;99.90;;;;;;5074546;28;45278;-51
2023/09/18 04:07:47;;;;;;;5.50;2.80;;;23.00;99.90;;;;;;5072990;28;45167;-51
2023/09/18 04:10:19;;;;;;;5.28;2.63;;;23.00;99.90;;;;;;5077791;28;45135;-51
2023/09/18 04:12:47;;;;;;;6.30;3.00;;;23.00;99.90;;;;;;5082052;27;45086;-51
2023/09/18 04:15:17;;;;;;;3.90;2.75;;;23.00;99.90;;;;;;5074718;27;45236;-51
2023/09/18 04:17:44;;;;;;;6.10;2.85;;;23.00;99.90;;;;;;5079725;27;48342;-50
2023/09/18 04:20:12;;;;;;;5.22;2.63;;;23.00;99.90;;;;;;5074180;28;45047;-51
2023/09/18 04:22:44;;;;;;;5.47;2.50;;;23.00;99.90;;;;;;5076557;28;45142;-51
2023/09/18 04:25:12;;;;;;;4.97;2.50;;;23.00;99.90;;;;;;5082295;28;45141;-51
2023/09/18 04:27:38;;;;;;;6.03;2.63;;;23.00;99.90;;;;;;5080709;27;47997;-50
2023/09/18 04:30:08;;;;;;;4.72;2.80;;;23.00;99.90;;;;;;5068879;28;45122;-49
2023/09/18 04:32:37;;;;;;;3.65;2.38;;;23.00;99.90;;;;;;5081589;28;45242;-49
2023/09/18 04:35:04;;;;;;;3.95;2.13;;;23.00;99.90;;;;;;5077724;28;45094;-50
2023/09/18 04:37:32;;;;;;;4.05;2.22;;;22.90;99.90;;;;;;5078077;27;45425;-50
2023/09/18 04:39:59;;;;;;;6.97;2.42;;;22.90;99.90;;;;;;5075593;28;44685;-49
2023/09/18 04:42:25;;;;;;;3.90;2.17;;;22.90;99.90;;;;;;5081557;28;45031;-50
2023/09/18 04:44:52;;;;;;;4.93;2.40;;;22.90;99.90;;;;;;5079236;28;45512;-49
2023/09/18 04:47:19;;;;;;;4.75;2.28;;;22.90;99.90;;;;;;5079342;27;45450;-49
2023/09/18 04:49:49;;;;;;;3.95;2.00;;;22.90;99.90;;;;;;5075483;28;45967;-50
2023/09/18 04:52:15;;;;;;;6.20;2.40;;;22.90;99.90;;;;;;5082386;28;44573;-50
2023/09/18 04:54:42;;;;;;;6.20;2.80;;;22.90;99.90;;;;;;5077794;27;45071;-51
2023/09/18 04:57:09;;;;;;;3.97;2.60;;;22.90;99.90;;;;;;5084161;27;45296;-50
2023/09/18 04:59:36;;;;;;;5.78;2.72;;;22.90;99.90;;;;;;5081888;27;45182;-50
2023/09/18 05:02:04;;;;;;;5.95;2.10;;;22.90;99.90;;;;;;5085899;28;45226;-50
2023/09/18 05:04:31;;;;;;;7.35;2.42;;;22.90;99.90;;;;;;5079740;28;45125;-50
2023/09/18 05:07:02;;;;;;;4.30;2.30;;;22.90;99.90;;;;;;5078885;28;46511;-50
2023/09/18 05:09:28;;;;;;;6.85;2.40;;;22.90;99.90;;;;;;5085883;28;45233;-49
2023/09/18 05:11:55;;;;;;;4.70;2.28;;;22.90;99.90;;;;;;5077369;28;45082;-50
2023/09/18 05:14:22;;;;;;;5.90;2.58;;;22.90;99.90;;;;;;5084519;28;45205;-50
2023/09/18 05:16:49;;;;;;;4.45;2.10;;;22.90;99.90;;;;;;5082052;28;46966;-50
2023/09/18 05:19:15;;;;;;;3.60;2.10;;;22.90;99.90;;;;;;5078140;28;45156;-51
2023/09/18 05:21:43;;;;;;;7.75;2.58;;;23.00;99.90;;;;;;5077765;28;45167;-51
2023/09/18 05:24:11;;;;;;;3.67;2.17;;;22.90;99.90;;;;;;5076240;28;45404;-51
2023/09/18 05:26:38;;;;;;;3.75;2.03;;;23.00;99.90;;;;;;5074529;28;46326;-51
2023/09/18 05:29:04;;;;;;;6.43;1.98;;;23.00;99.90;;;;;;5084329;27;45103;-51
2023/09/18 05:31:31;;;;;;;4.03;2.10;;;23.00;99.90;;;;;;5084723;27;45181;-51
2023/09/18 05:33:58;;;;;;;4.35;1.60;;;23.00;99.90;;;;;;5077278;28;45461;-51
2023/09/18 05:36:25;;;;;;;6.35;2.47;;;23.00;99.90;;;;;;5085338;27;45539;-51
2023/09/18 05:38:52;;;;;;;3.17;2.10;;;23.00;99.90;;;;;;5086033;27;45058;-49
2023/09/18 05:41:21;;;;;;;4.70;2.03;;;23.00;99.90;;;;;;5084929;28;45058;-50
2023/09/18 05:43:47;;;;;;;5.47;2.20;;;23.00;99.90;;;;;;5084486;28;45157;-50
2023/09/18 05:46:14;;;;;;;6.88;2.10;;;23.00;99.90;;;;;;5077807;28;45239;-50
2023/09/18 05:48:42;;;;;;;3.47;2.13;;;23.00;99.90;;;;;;5082539;27;45124;-50
2023/09/18 05:51:08;;;;;;;4.50;2.00;;;23.00;99.90;;;;;;5086004;28;45228;-49
2023/09/18 05:53:35;;;;;;;4.22;1.83;;;23.00;99.90;;;;;;5086097;28;45407;-50
2023/09/18 05:56:03;;;;;;;4.40;2.30;;;23.00;99.90;;;;;;5083349;28;46528;-50
2023/09/18 05:58:32;;;;;;;2.47;1.80;;;23.00;99.90;;;;;;5074692;28;45124;-51
2023/09/18 06:01:00;;;;;;;2.47;1.80;;;23.00;99.90;;;;;;5081773;28;45054;-50
2023/09/18 06:03:27;;;;;;;4.38;2.17;;;23.00;99.90;;;;;;5082764;28;45137;-50
2023/09/18 06:05:53;;;;;;;2.92;1.90;;;23.00;99.90;;;;;;5077749;27;47299;-51
2023/09/18 06:08:20;;;;;;;3.75;2.08;;;23.00;99.90;;;;;;5080450;28;45055;-51
2023/09/18 06:10:47;;;;;;;4.68;1.77;;;23.00;99.90;;;;;;5085400;28;45263;-49
2023/09/18 06:13:14;;;;;;;7.22;2.45;;;23.00;99.90;;;;;;5070540;27;45472;-50
2023/09/18 06:15:42;;;;;;;3.80;1.60;;;23.00;99.90;;;;;;5084463;28;46079;-49
2023/09/18 06:18:08;;;;;;;5.15;1.95;;;23.00;99.90;;;;;;5083124;28;45189;-50
2023/09/18 06:20:35;;;;;;;5.82;2.60;;;23.00;99.90;;;;;;5081192;28;45165;-50
2023/09/18 06:23:03;;;;;;;4.00;1.80;;;23.00;99.90;;;;;;5084569;27;45054;-50
2023/09/18 06:25:31;;;;;;;5.07;2.05;;;23.00;99.90;;;;;;5076550;28;48261;-50
2023/09/18 06:27:58;;;;;;;4.47;1.83;;;23.00;99.90;;;;;;5081133;28;46036;-51
2023/09/18 06:30:25;;;;;;;4.45;2.00;;;23.00;99.90;;;;;;5065290;28;45036;-51
2023/09/18 06:32:53;;;;;;;5.22;1.63;;;23.00;99.90;;;;;;5073686;27;45086;-51
2023/09/18 06:35:20;;;;;;;2.80;1.67;;;23.00;99.90;;;;;;5075390;28;47040;-51
2023/09/18 06:37:47;;;;;;;4.45;1.58;;;23.00;99.90;;;;;;5075571;28;45582;-50
2023/09/18 06:40:14;;;;;;;5.88;2.03;;;23.00;99.90;;;;;;5081930;28;45195;-51
2023/09/18 06:42:41;;;;;;;3.50;1.65;;;23.00;99.90;;;;;;5078778;27;45086;-49
2023/09/18 06:45:09;;;;;;;2.90;1.30;;;23.00;99.90;;;;;;5075745;28;47763;-50
2023/09/18 06:47:36;;;;;;;2.92;1.55;;;23.00;99.90;;;;;;5080032;28;45090;-50
2023/09/18 06:50:05;;;;;;;3.38;1.35;;;23.00;99.90;;;;;;5077705;28;45179;-50
2023/09/18 06:52:32;;;;;;;2.63;1.02;;;23.00;99.90;;;;;;5082627;27;45346;-50
2023/09/18 06:54:59;;;;;;;2.03;1.17;;;23.00;99.90;;;;;;5083741;28;47840;-50
2023/09/18 06:57:26;;;;;;;1.95;1.17;;;23.00;99.90;;;;;;5075991;27;45249;-51
2023/09/18 06:59:52;;;;;;;2.55;1.10;;;23.00;99.90;;;;;;5074813;28;45120;-51
2023/09/18 07:02:19;;;;;;;2.80;1.33;;;23.00;99.90;;;;;;5076858;28;45159;-51
2023/09/18 07:04:46;;;;;;;1.52;1.10;;;23.00;99.90;;;;;;5077997;28;45527;-51
2023/09/18 07:07:15;;;;;;;4.35;1.45;;;23.00;99.90;;;;;;5082798;28;45217;-51
2023/09/18 07:09:42;;;;;;;3.00;0.90;;;23.00;99.90;;;;;;5080393;28;45149;-51
2023/09/18 07:12:10;;;;;;;2.42;1.17;;;23.10;99.90;;;;;;5081446;27;45423;-51
2023/09/18 07:14:37;;;;;;;3.17;0.98;;;23.00;99.90;;;;;;5080595;28;45207;-51
2023/09/18 07:17:04;;;;;;;3.83;1.10;;;23.00;99.90;;;;;;5077130;28;45338;-51
2023/09/18 07:19:32;;;;;;;2.05;1.13;;;23.10;99.90;;;;;;5080241;27;45094;-51
2023/09/18 07:21:59;;;;;;;2.97;0.90;;;23.00;99.90;;;;;;5084294;28;44681;-51
2023/09/18 07:24:27;;;;;;;1.60;1.00;;;23.10;99.90;;;;;;5082900;28;46100;-51
2023/09/18 07:26:54;;;;;;;3.67;1.10;;;23.10;99.90;;;;;;5081338;28;45054;-51
2023/09/18 07:29:22;;;;;;;3.95;0.90;;;23.10;99.90;;;;;;5081878;28;45142;-51
2023/09/18 07:31:48;;;;;;;1.30;0.80;;;23.10;99.90;;;;;;5084459;28;45334;-51
2023/09/18 07:34:17;;;;;;;2.95;1.27;;;23.10;99.90;;;;;;5082252;28;47532;-54
2023/09/18 07:36:44;;;;;;;25.83;2.35;;;23.10;99.90;;;;;;5082200;28;45098;-53
2023/09/18 07:39:12;;;;;;;17.52;1.92;;;23.10;99.90;;;;;;5082882;28;45130;-53
2023/09/18 07:41:40;;;;;;;9.55;1.42;;;23.10;99.90;;;;;;5078816;28;45191;-52
2023/09/18 07:44:07;;;;;;;9.55;1.85;;;23.10;99.90;;;;;;5081855;27;45294;-52
2023/09/18 07:46:34;;;;;;;3.90;1.20;;;23.10;99.90;;;;;;5076200;28;44652;-52
2023/09/18 07:49:00;;;;;;;5.55;1.35;;;23.10;99.90;;;;;;5077060;28;45150;-52
2023/09/18 07:51:27;;;;;;;4.93;1.33;;;23.10;99.90;;;;;;5073469;28;45193;-53
2023/09/18 07:53:54;;;;;;;5.65;1.10;;;23.10;99.90;;;;;;5072953;28;45253;-52
2023/09/18 07:56:21;;;;;;;2.88;1.10;;;23.10;99.90;;;;;;5078070;28;45150;-53
2023/09/18 07:58:49;;;;;;;2.22;0.93;;;23.10;99.90;;;;;;5073521;28;44638;-53
2023/09/18 08:01:17;;;;;;;2.85;0.85;;;23.10;99.90;;;;;;5080466;28;45195;-53
2023/09/18 08:03:43;;;;;;;5.10;1.27;;;23.10;99.90;;;;;;5078414;27;46055;-53
2023/09/18 08:06:11;;;;;;;2.67;0.93;;;23.10;99.90;;;;;;5083044;28;45323;-53
2023/09/18 08:08:39;;;;;;;2.40;0.80;;;23.10;99.90;;;;;;5082422;28;45167;-53
2023/09/18 08:11:09;;;;;;;2.05;1.10;;;23.10;99.90;;;;;;5083206;28;45220;-53
2023/09/18 08:13:36;;;;;;;1.75;0.90;;;23.10;99.90;;;;;;5081101;28;48279;-53
2023/09/18 08:16:07;;;;;;;3.08;1.10;;;23.20;99.90;;;;;;5075826;28;45216;-53
2023/09/18 08:18:34;;;;;;;2.22;1.02;;;23.20;99.90;;;;;;5082506;28;45100;-53
2023/09/18 08:21:01;;;;;;;2.67;1.02;;;23.20;99.90;;;;;;5073661;28;45443;-53
2023/09/18 08:23:28;;;;;;;2.05;0.70;;;23.20;99.90;;;;;;5082610;28;45523;-53
2023/09/18 08:25:57;;;;;;;1.80;1.00;;;23.20;99.90;;;;;;5078844;27;45124;-53
2023/09/18 08:28:24;;;;;;;2.05;0.80;;;23.20;99.90;;;;;;5076708;28;45135;-53
2023/09/18 08:30:51;;;;;;;3.53;0.95;;;23.20;99.90;;;;;;5084652;28;45148;-53
2023/09/18 08:33:19;;;;;;;1.02;0.80;;;23.20;99.90;;;;;;5085388;28;46029;-53
2023/09/18 08:35:46;;;;;;;1.85;0.80;;;23.20;99.90;;;;;;5077842;27;45150;-53
2023/09/18 08:38:13;;;;;;;1.65;0.90;;;23.20;99.90;;;;;;5084083;28;44678;-53
2023/09/18 08:40:42;;;;;;;1.85;1.00;;;23.20;99.90;;;;;;5085370;27;45119;-53
2023/09/18 08:43:11;;;;;;;1.38;0.75;;;23.20;99.90;;;;;;5070439;28;45240;-53
2023/09/18 08:45:44;;;;;;;1.33;0.70;;;23.20;99.90;;;;;;5079167;28;45398;-53
2023/09/18 08:48:11;;;;;;;2.25;0.88;;;23.20;99.90;;;;;;5081800;27;45263;-53
2023/09/18 08:50:40;;;;;;;1.10;0.73;;;23.20;99.90;;;;;;5079788;28;45131;-53
2023/09/18 08:53:07;;;;;;;1.27;0.80;;;23.20;99.90;;;;;;5086754;28;46391;-53
2023/09/18 08:55:35;;;;;;;1.85;0.90;;;23.20;99.90;;;;;;5085044;27;45074;-53
2023/09/18 08:58:02;;;;;;;1.35;0.50;;;23.20;99.90;;;;;;5082324;27;45285;-53
2023/09/18 09:00:29;;;;;;;1.45;0.70;;;23.20;99.90;;;;;;5085646;28;44661;-53
2023/09/18 09:02:56;;;;;;;0.93;0.70;;;23.20;99.90;;;;;;5081851;28;47184;-53
2023/09/18 09:05:23;;;;;;;1.75;0.80;;;23.20;99.90;;;;;;5083377;27;45105;-53
2023/09/18 09:07:51;;;;;;;1.67;0.50;;;23.20;99.90;;;;;;5074478;28;45167;-53
2023/09/18 09:10:18;;;;;;;1.08;0.68;;;23.20;99.90;;;;;;5066509;28;44829;-53
2023/09/18 09:12:48;;;;;;;1.45;0.82;;;23.20;99.90;;;;;;5086238;27;46384;-53
2023/09/18 09:15:15;;;;;;;3.30;0.70;;;23.20;99.90;;;;;;5083700;27;45133;-53
2023/09/18 09:17:44;;;;;;;2.22;0.82;;;23.20;99.90;;;;;;5085850;28;45205;-53
2023/09/18 09:20:12;;;;;;;0.60;0.60;;;23.20;99.90;;;;;;5074300;28;45178;-53
2023/09/18 09:22:40;;;;;;;1.80;0.80;;;23.20;99.90;;;;;;5086085;28;46955;-53
2023/09/18 09:25:23;;;;;;;1.95;0.93;;;23.20;99.90;;;;;;5083434;28;45182;-53
2023/09/18 09:27:49;;;;;;;1.23;0.80;;;23.20;99.90;;;;;;5082725;28;45017;-53
2023/09/18 09:30:21;;;;;;;1.20;0.65;;;23.20;99.90;;;;;;5078850;28;44719;-53
2023/09/18 09:32:50;;;;;;;1.25;0.60;;;23.20;99.90;;;;;;5084354;27;46032;-53
2023/09/18 09:35:22;;;;;;;3.65;0.93;;;23.20;99.90;;;;;;5080005;28;44712;-53
2023/09/18 09:37:50;;;;;;;1.58;0.75;;;23.20;99.90;;;;;;5077191;28;45130;-53
2023/09/18 09:40:20;;;;;;;2.05;0.85;;;23.20;99.90;;;;;;5085816;28;45283;-53
2023/09/18 09:42:47;;;;;;;1.33;0.70;;;23.20;99.90;;;;;;5078100;28;45159;-53
2023/09/18 09:45:16;;;;;;;1.52;0.70;;;23.20;99.90;;;;;;5080122;28;45038;-53
2023/09/18 09:47:43;;;;;;;1.08;0.70;;;23.20;99.90;;;;;;5083493;28;44710;-53
2023/09/18 09:50:13;;;;;;;0.80;0.70;;;23.20;99.90;;;;;;5074628;27;45081;-53
2023/09/18 09:52:44;;;;;;;0.50;0.50;;;23.20;99.90;;;;;;5073979;28;47028;-53
2023/09/18 09:55:24;;;;;;;0.85;0.50;;;23.20;99.90;;;;;;5078436;28;45202;-53
2023/09/18 09:57:53;;;;;;;0.60;0.50;;;23.20;99.90;;;;;;5076433;28;45191;-52
2023/09/18 10:00:26;;;;;;;1.00;0.67;;;23.20;99.90;;;;;;5081499;28;45216;-65
2023/09/18 10:02:57;;;;;;;3.25;1.00;;;23.20;99.90;;;;;;5081469;27;45434;-61
2023/09/18 10:05:28;;;;;;;4.90;1.00;;;22.50;99.90;;;;;;5078245;28;45292;-58
2023/09/18 10:07:58;;;;;;;1.75;1.10;;;22.10;99.90;;;;;;5077830;27;45420;-58
2023/09/18 10:10:32;;;;;;;4.32;1.10;;;21.90;99.90;;;;;;5084142;28;45190;-58
2023/09/18 10:13:03;;;;;;;2.40;1.10;;;21.70;99.90;;;;;;5084907;27;46342;-58
2023/09/18 10:15:38;;;;;;;3.60;1.20;;;21.60;99.90;;;;;;5083356;28;45299;-58
2023/09/18 10:18:08;;;;;;;4.78;1.10;;;21.60;99.90;;;;;;5075503;28;45126;-58
2023/09/18 10:20:42;;;;;;;4.28;1.00;;;21.50;99.90;;;;;;5085319;28;45027;-58
2023/09/18 10:23:20;;;;;;;5.00;1.25;;;21.60;99.90;;;;;;5085043;28;45174;-58
2023/09/18 10:25:51;;;;;;;7.57;1.45;;;21.60;99.90;;;;;;5083393;27;45078;-58
2023/09/18 10:28:19;;;;;;;2.42;1.20;;;21.60;99.90;;;;;;5077917;28;45117;-58
2023/09/18 10:30:46;;;;;;;7.13;1.63;;;21.60;99.90;;;;;;5084490;28;45072;-58
2023/09/18 10:33:13;;;;;;;3.95;1.25;;;21.60;99.90;;;;;;5073095;27;47285;-58
2023/09/18 10:35:42;;;;;;;1.75;1.00;;;21.70;99.90;;;;;;5080258;28;45774;-58
2023/09/18 10:38:10;;;;;;;4.90;1.40;;;21.70;99.90;;;;;;5077041;27;45323;-58
2023/09/18 10:40:38;;;;;;;1.33;1.10;;;21.60;99.90;;;;;;5079120;28;45320;-58
2023/09/18 10:43:10;;;;;;;5.53;1.48;;;21.70;99.90;;;;;;5081884;28;45300;-58
2023/09/18 10:45:38;;;;;;;3.60;1.50;;;21.60;99.90;;;;;;5082301;28;45114;-58
2023/09/18 10:48:08;;;;;;;5.30;1.38;;;21.70;99.90;;;;;;5074526;28;45415;-58
2023/09/18 10:50:36;;;;;;;3.90;1.45;;;21.70;99.90;;;;;;5083013;28;45042;-58
2023/09/18 10:53:03;;;;;;;2.30;1.23;;;21.80;99.90;;;;;;5083485;27;45428;-58
2023/09/18 10:55:30;;;;;;;3.75;1.30;;;21.80;99.90;;;;;;5082768;28;45153;-58
2023/09/18 10:57:58;;;;;;;3.45;1.10;;;21.70;99.90;;;;;;5078640;28;44572;-58
2023/09/18 11:00:29;;;;;;;5.25;1.33;;;21.80;99.90;;;;;;5072640;28;45030;-58
2023/09/18 11:03:11;;;;;;;3.08;1.55;;;21.80;99.90;;;;;;5077017;28;46207;-58
2023/09/18 11:05:38;;;;;;;2.97;1.35;;;21.80;99.90;;;;;;5081346;28;45119;-58
2023/09/18 11:08:27;;;;;;;3.47;1.40;;;21.90;99.90;;;;;;5084704;28;45109;-58
2023/09/18 11:11:04;;;;;;;4.15;1.35;;;21.90;99.90;;;;;;5080098;28;45055;-58
2023/09/18 11:13:31;;;;;;;4.72;1.23;;;21.90;99.90;;;;;;5083429;27;45305;-58
2023/09/18 11:16:13;;;;;;;5.30;1.08;;;22.00;99.90;;;;;;5083401;28;45165;-58
2023/09/18 11:18:40;;;;;;;9.52;1.55;;;22.00;99.90;;;;;;5078643;28;44584;-58
2023/09/18 11:21:11;;;;;;;2.67;1.25;;;22.00;99.90;;;;;;5084424;28;45269;-58
2023/09/18 11:23:42;;;;;;;3.15;1.10;;;21.90;99.90;;;;;;5081524;28;46485;-58
2023/09/18 11:26:10;;;;;;;3.08;1.10;;;22.00;99.90;;;;;;5079279;28;45262;-58
2023/09/18 11:28:38;;;;;;;4.15;1.30;;;22.00;99.90;;;;;;5080481;28;45277;-58
2023/09/18 11:31:07;;;;;;;1.45;1.10;;;21.90;99.90;;;;;;5077469;28;44733;-58
2023/09/18 11:33:36;;;;;;;4.50;1.42;;;21.90;99.90;;;;;;5074408;28;47096;-58
2023/09/18 11:36:11;;;;;;;3.03;1.50;;;22.00;99.90;;;;;;5067934;28;45235;-58
2023/09/18 11:38:53;;;;;;;2.45;1.20;;;22.00;99.90;;;;;;5071526;28;45185;-58
2023/09/18 11:41:28;;;;;;;5.60;1.63;;;22.00;99.90;;;;;;5076002;28;45110;-58
2023/09/18 11:44:32;;;;;;;5.35;1.60;;;21.90;99.90;;;;;;5080030;28;47001;-58
2023/09/18 11:47:01;;;;;;;6.07;1.30;;;21.90;99.90;;;;;;5075213;28;45192;-58
2023/09/18 11:49:31;;;;;;;2.60;1.30;;;22.00;99.90;;;;;;5079408;28;45148;-58
2023/09/18 11:51:59;;;;;;;3.35;1.10;;;22.40;99.90;;;;;;5081648;27;45113;-56
2023/09/18 11:54:28;;;;;;;7.45;1.30;;;22.60;99.90;;;;;;5080421;27;45404;-55
2023/09/18 11:56:54;;;;;;;1.95;1.10;;;22.50;99.90;;;;;;5078936;28;45255;-55
2023/09/18 11:59:36;;;;;;;2.47;1.50;;;22.40;99.90;;;;;;5072210;28;45188;-55
2023/09/18 12:02:05;;;;;;;6.40;1.67;;;22.20;99.90;;;;;;5076766;28;45134;-56
2023/09/18 12:04:33;;;;;;;1.23;1.00;;;22.20;99.90;;;;;;5076761;28;46339;-58
2023/09/18 12:07:02;;;;;;;1.65;1.10;;;22.30;99.90;;;;;;5080687;28;45282;-58
2023/09/18 12:09:30;;;;;;;5.80;1.30;;;22.30;99.90;;;;;;5079368;27;45145;-58
2023/09/18 12:11:58;;;;;;;5.13;1.40;;;22.40;99.90;;;;;;5080237;28;45229;-58
2023/09/18 12:14:24;;;;;;;1.55;1.00;;;22.50;99.90;;;;;;5072943;28;46421;-58
2023/09/18 12:16:51;;;;;;;2.42;1.38;;;22.30;99.90;;;;;;5082699;28;44583;-58
2023/09/18 12:19:20;;;;;;;4.53;1.20;;;22.20;99.90;;;;;;5078358;28;45215;-58
2023/09/18 12:21:48;;;;;;;2.92;1.50;;;22.30;99.90;;;;;;5080340;28;45154;-58
2023/09/18 12:24:15;;;;;;;3.63;1.30;;;22.30;99.90;;;;;;5076855;28;47605;-57
2023/09/18 12:26:43;;;;;;;3.45;1.30;;;22.10;99.90;;;;;;5076559;28;45104;-57
2023/09/18 12:29:10;;;;;;;2.78;1.30;;;22.10;99.90;;;;;;5082624;28;45106;-57
2023/09/18 12:31:37;;;;;;;1.77;1.30;;;22.10;99.90;;;;;;5085448;28;45478;-58
2023/09/18 12:34:07;;;;;;;3.00;1.25;;;22.20;99.90;;;;;;5079348;28;45406;-59
2023/09/18 12:36:35;;;;;;;6.70;1.40;;;22.30;99.90;;;;;;5071341;28;45232;-58
2023/09/18 12:39:02;;;;;;;3.42;1.15;;;22.40;99.90;;;;;;5079381;28;44615;-58
2023/09/18 12:41:30;;;;;;;1.98;1.35;;;22.40;99.90;;;;;;5079383;27;45216;-58
2023/09/18 12:43:57;;;;;;;3.50;1.48;;;22.30;99.90;;;;;;5071701;28;46219;-58
2023/09/18 12:46:24;;;;;;;4.60;1.15;;;22.30;99.90;;;;;;5080133;28;45219;-58
2023/09/18 12:48:51;;;;;;;5.90;1.52;;;22.60;99.30;;;;;;5075038;28;45319;-58
2023/09/18 12:51:22;;;;;;;3.08;1.30;;;22.60;99.90;;;;;;5075808;27;45277;-58
2023/09/18 12:54:00;;;;;;;1.38;0.90;;;22.50;99.90;;;;;;5071174;28;47266;-58